createdAt,value
2018-07-16T00:00:43.977Z,8.33
2018-07-16T00:03:12.037Z,8.10
2018-07-16T00:05:40.102Z,8.33
2018-07-16T00:08:08.168Z,7.85
2018-07-16T00:10:36.220Z,7.83
2018-07-16T00:13:04.310Z,8.50
2018-07-16T00:15:32.380Z,8.30
2018-07-16T00:18:00.457Z,7.33
2018-07-16T00:20:28.515Z,7.47
2018-07-16T00:22:56.572Z,7.03
2018-07-16T00:25:24.628Z,7.90
2018-07-16T00:27:52.553Z,7.95
2018-07-16T00:30:20.617Z,7.60
2018-07-16T00:32:48.689Z,7.85
2018-07-16T00:35:16.752Z,7.50
2018-07-16T00:37:44.825Z,7.60
2018-07-16T00:40:13.018Z,7.83
2018-07-16T00:42:41.076Z,6.72
2018-07-16T00:45:09.133Z,7.42
2018-07-16T00:47:37.193Z,7.20
2018-07-16T00:50:05.273Z,7.00
2018-07-16T00:52:33.337Z,6.90
2018-07-16T00:55:01.401Z,6.62
2018-07-16T00:57:29.476Z,7.80
2018-07-16T00:59:57.523Z,7.90
2018-07-16T01:02:25.571Z,8.80
2018-07-16T01:04:53.637Z,9.13
2018-07-16T01:07:21.736Z,10.00
2018-07-16T01:09:49.796Z,9.00
2018-07-16T01:12:17.968Z,10.63
2018-07-16T01:14:46.033Z,9.40
2018-07-16T01:17:14.096Z,9.53
2018-07-16T01:19:42.161Z,10.28
2018-07-16T01:22:10.220Z,9.00
2018-07-16T01:24:38.285Z,9.75
2018-07-16T01:27:06.341Z,9.08
2018-07-16T01:29:34.416Z,9.60
2018-07-16T01:32:02.476Z,9.05
2018-07-16T01:34:30.540Z,9.83
2018-07-16T01:36:58.648Z,9.95
2018-07-16T01:39:26.723Z,10.43
2018-07-16T01:41:54.781Z,9.43
2018-07-16T01:44:22.844Z,9.93
2018-07-16T01:46:51.100Z,9.93
2018-07-16T01:49:19.148Z,10.72
2018-07-16T01:51:47.209Z,10.35
2018-07-16T01:54:15.289Z,11.08
2018-07-16T01:56:43.369Z,10.20
2018-07-16T01:59:11.448Z,11.48
2018-07-16T02:01:39.528Z,11.60
2018-07-16T02:04:07.620Z,10.58
2018-07-16T02:06:35.689Z,11.10
2018-07-16T02:09:04.485Z,11.10
2018-07-16T02:11:32.552Z,10.85
2018-07-16T02:14:00.792Z,10.48
2018-07-16T02:16:28.867Z,8.68
2018-07-16T02:18:56.936Z,8.40
2018-07-16T02:21:25.012Z,8.15
2018-07-16T02:23:53.076Z,7.30
2018-07-16T02:26:21.132Z,7.80
2018-07-16T02:28:49.204Z,8.80
2018-07-16T02:31:17.269Z,7.40
2018-07-16T02:33:45.351Z,8.10
2018-07-16T02:36:13.401Z,7.90
2018-07-16T02:38:41.545Z,8.18
2018-07-16T02:41:09.548Z,7.40
2018-07-16T02:43:37.616Z,8.38
2018-07-16T02:46:05.828Z,7.45
2018-07-16T02:48:34.501Z,7.08
2018-07-16T02:51:02.547Z,7.80
2018-07-16T02:53:30.608Z,7.30
2018-07-16T02:55:58.669Z,8.85
2018-07-16T02:58:26.732Z,7.67
2018-07-16T03:00:54.800Z,8.70
2018-07-16T03:03:22.864Z,8.50
2018-07-16T03:05:50.923Z,7.95
2018-07-16T03:08:18.985Z,8.60
2018-07-16T03:10:47.061Z,8.18
2018-07-16T03:13:15.128Z,7.95
2018-07-16T03:15:43.200Z,8.63
2018-07-16T03:18:11.333Z,7.67
2018-07-16T03:20:39.319Z,8.90
2018-07-16T03:23:07.376Z,7.70
2018-07-16T03:25:35.440Z,7.65
2018-07-16T03:28:03.501Z,7.87
2018-07-16T03:30:31.570Z,9.05
2018-07-16T03:32:59.635Z,8.75
2018-07-16T03:35:27.737Z,8.35
2018-07-16T03:37:55.804Z,9.18
2018-07-16T03:40:23.868Z,7.33
2018-07-16T03:42:52.017Z,7.97
2018-07-16T03:45:20.087Z,7.05
2018-07-16T03:47:48.156Z,7.95
2018-07-16T03:50:16.228Z,7.53
2018-07-16T03:52:44.281Z,8.28
2018-07-16T03:55:12.340Z,7.42
2018-07-16T03:57:40.412Z,7.87
2018-07-16T04:00:08.485Z,7.65
2018-07-16T04:02:36.532Z,8.33
2018-07-16T04:05:04.640Z,7.22
2018-07-16T04:07:32.704Z,8.30
2018-07-16T04:10:00.764Z,8.78
2018-07-16T04:12:28.824Z,8.50
2018-07-16T04:14:56.890Z,9.55
2018-07-16T04:17:25.009Z,8.68
2018-07-16T04:19:53.073Z,8.58
2018-07-16T04:22:21.128Z,8.05
2018-07-16T04:24:49.201Z,8.90
2018-07-16T04:27:17.249Z,8.10
2018-07-16T04:29:45.319Z,9.08
2018-07-16T04:32:13.375Z,8.30
2018-07-16T04:34:41.440Z,8.70
2018-07-16T04:37:09.509Z,8.30
2018-07-16T04:39:37.571Z,9.20
2018-07-16T04:42:05.623Z,9.80
2018-07-16T04:44:33.684Z,9.95
2018-07-16T04:47:01.744Z,9.65
2018-07-16T04:49:29.809Z,8.93
2018-07-16T04:51:57.856Z,9.13
2018-07-16T04:54:26.048Z,8.73
2018-07-16T04:56:54.109Z,9.03
2018-07-16T04:59:22.177Z,9.10
2018-07-16T05:01:50.232Z,9.63
2018-07-16T05:04:18.312Z,9.00
2018-07-16T05:06:46.372Z,9.05
2018-07-16T05:09:14.440Z,9.85
2018-07-16T05:11:42.500Z,9.15
2018-07-16T05:14:10.575Z,9.80
2018-07-16T05:16:38.620Z,10.13
2018-07-16T05:19:06.678Z,10.15
2018-07-16T05:21:34.769Z,9.10
2018-07-16T05:24:02.854Z,11.30
2018-07-16T05:26:30.852Z,10.88
2018-07-16T05:28:58.901Z,10.50
2018-07-16T05:31:26.979Z,11.20
2018-07-16T05:33:55.156Z,12.30
2018-07-16T05:36:23.200Z,11.57
2018-07-16T05:38:51.308Z,11.45
2018-07-16T05:41:19.361Z,11.78
2018-07-16T05:43:47.405Z,11.05
2018-07-16T05:46:15.461Z,10.40
2018-07-16T05:48:43.592Z,11.15
2018-07-16T05:51:11.644Z,13.32
2018-07-16T05:53:39.688Z,12.73
2018-07-16T05:56:07.728Z,12.05
2018-07-16T05:58:35.781Z,13.03
2018-07-16T06:01:03.828Z,12.07
2018-07-16T06:03:31.884Z,13.60
2018-07-16T06:05:59.937Z,12.60
2018-07-16T06:08:28.000Z,13.13
2018-07-16T06:10:56.057Z,12.35
2018-07-16T06:13:24.102Z,13.30
2018-07-16T06:15:52.153Z,13.50
2018-07-16T06:18:20.208Z,13.48
2018-07-16T06:20:48.260Z,14.35
2018-07-16T06:23:16.297Z,13.20
2018-07-16T06:25:44.348Z,13.95
2018-07-16T06:28:12.385Z,12.60
2018-07-16T06:30:40.432Z,14.00
2018-07-16T06:33:08.476Z,13.43
2018-07-16T06:35:36.769Z,12.65
2018-07-16T06:38:04.924Z,13.58
2018-07-16T06:40:33.141Z,13.60
2018-07-16T06:43:01.016Z,12.93
2018-07-16T06:45:29.064Z,14.85
2018-07-16T06:47:57.116Z,13.40
2018-07-16T06:50:25.156Z,13.35
2018-07-16T06:52:53.196Z,12.58
2018-07-16T06:55:21.254Z,13.72
2018-07-16T06:57:49.298Z,14.30
2018-07-16T07:00:17.346Z,13.62
2018-07-16T07:02:45.379Z,14.05
2018-07-16T07:05:13.467Z,13.85
2018-07-16T07:07:41.515Z,14.20
2018-07-16T07:10:09.651Z,14.00
2018-07-16T07:12:37.601Z,12.58
2018-07-16T07:15:05.680Z,13.50
2018-07-16T07:17:33.724Z,12.88
2018-07-16T07:20:01.782Z,12.28
2018-07-16T07:22:29.845Z,13.83
2018-07-16T07:24:57.928Z,12.07
2018-07-16T07:27:25.976Z,14.25
2018-07-16T07:29:54.213Z,13.88
2018-07-16T07:32:22.263Z,13.53
2018-07-16T07:34:50.201Z,13.13
2018-07-16T07:37:18.249Z,13.08
2018-07-16T07:39:46.471Z,12.13
2018-07-16T07:42:14.517Z,13.10
2018-07-16T07:44:42.720Z,12.25
2018-07-16T07:47:10.776Z,12.28
2018-07-16T07:49:38.816Z,13.68
2018-07-16T07:52:06.864Z,11.68
2018-07-16T07:54:35.163Z,13.30
2018-07-16T07:57:03.023Z,12.35
2018-07-16T07:59:31.064Z,12.13
2018-07-16T08:01:59.220Z,11.85
2018-07-16T08:04:27.272Z,11.73
2018-07-16T08:07:00.861Z,11.53
2018-07-16T08:09:28.703Z,11.35
2018-07-16T08:11:56.756Z,9.50
2018-07-16T08:14:24.792Z,9.60
2018-07-16T08:16:52.865Z,8.85
2018-07-16T08:19:20.947Z,7.25
2018-07-16T08:21:49.013Z,7.95
2018-07-16T08:24:17.082Z,7.08
2018-07-16T08:26:45.147Z,6.90
2018-07-16T08:29:13.220Z,6.28
2018-07-16T08:31:41.316Z,7.20
2018-07-16T08:34:09.388Z,7.67
2018-07-16T08:36:37.448Z,7.90
2018-07-16T08:39:06.160Z,9.05
2018-07-16T08:41:34.304Z,8.50
2018-07-16T08:44:02.696Z,8.45
2018-07-16T08:46:30.896Z,7.90
2018-07-16T08:48:59.192Z,8.40
2018-07-16T08:51:27.300Z,7.42
2018-07-16T08:53:55.416Z,8.55
2018-07-16T08:56:23.493Z,8.48
2018-07-16T08:58:51.548Z,8.10
2018-07-16T09:01:19.608Z,7.58
2018-07-16T09:03:47.667Z,7.78
2018-07-16T09:06:15.734Z,6.28
2018-07-16T09:08:43.796Z,6.95
2018-07-16T09:11:11.927Z,6.15
2018-07-16T09:13:40.047Z,5.47
2018-07-16T09:16:08.025Z,5.05
2018-07-16T09:18:36.076Z,4.28
2018-07-16T09:21:04.193Z,5.08
2018-07-16T09:23:32.250Z,5.03
2018-07-16T09:26:00.315Z,4.90
2018-07-16T09:28:28.382Z,4.60
2018-07-16T09:30:56.452Z,4.30
2018-07-16T09:33:24.512Z,4.30
2018-07-16T09:35:52.577Z,5.00
2018-07-16T09:38:20.646Z,5.05
2018-07-16T09:40:48.708Z,5.00
2018-07-16T09:43:16.773Z,4.30
2018-07-16T09:45:44.828Z,4.00
2018-07-16T09:48:12.909Z,3.55
2018-07-16T09:50:40.965Z,3.70
2018-07-16T09:53:09.033Z,3.00
2018-07-16T09:55:37.097Z,2.98
2018-07-16T09:58:05.384Z,3.45
2018-07-16T10:00:38.302Z,3.77
2018-07-16T10:03:06.633Z,3.85
2018-07-16T10:05:34.699Z,3.80
2018-07-16T10:08:02.767Z,3.50
2018-07-16T10:10:30.840Z,3.55
2018-07-16T10:12:58.905Z,3.20
2018-07-16T10:15:26.970Z,3.65
2018-07-16T10:17:55.029Z,3.40
2018-07-16T10:20:23.222Z,3.80
2018-07-16T10:22:51.192Z,3.45
2018-07-16T10:25:19.233Z,3.85
2018-07-16T10:27:47.301Z,3.10
2018-07-16T10:30:15.337Z,3.15
2018-07-16T10:32:43.388Z,2.92
2018-07-16T10:35:11.311Z,3.40
2018-07-16T10:37:39.361Z,3.22
2018-07-16T10:40:07.404Z,3.87
2018-07-16T10:42:35.458Z,3.72
2018-07-16T10:45:03.593Z,3.35
2018-07-16T10:47:31.631Z,3.10
2018-07-16T10:49:59.688Z,3.05
2018-07-16T10:52:27.752Z,2.80
2018-07-16T10:54:55.804Z,3.13
2018-07-16T10:57:23.857Z,3.50
2018-07-16T10:59:51.900Z,3.22
2018-07-16T11:02:19.745Z,2.57
2018-07-16T11:04:47.788Z,2.90
2018-07-16T11:07:15.840Z,3.00
2018-07-16T11:09:44.048Z,3.40
2018-07-16T11:12:12.124Z,3.40
2018-07-16T11:14:39.972Z,3.30
2018-07-16T11:17:08.036Z,2.87
2018-07-16T11:19:36.076Z,2.72
2018-07-16T11:22:04.140Z,3.00
2018-07-16T11:24:32.177Z,2.50
2018-07-16T11:27:00.225Z,3.10
2018-07-16T11:29:28.260Z,3.63
2018-07-16T11:31:56.300Z,2.60
2018-07-16T11:34:24.345Z,3.37
2018-07-16T11:36:52.433Z,2.93
2018-07-16T11:39:20.477Z,3.20
2018-07-16T11:41:48.528Z,3.10
2018-07-16T11:44:16.560Z,2.90
2018-07-16T11:46:44.592Z,3.10
2018-07-16T11:49:12.632Z,3.13
2018-07-16T11:51:40.668Z,3.10
2018-07-16T11:54:08.718Z,2.85
2018-07-16T11:56:36.760Z,2.95
2018-07-16T11:59:04.866Z,2.55
2018-07-16T12:01:32.864Z,2.70
2018-07-16T12:04:00.915Z,2.77
2018-07-16T12:06:28.948Z,2.97
2018-07-16T12:08:57.009Z,2.73
2018-07-16T12:11:25.048Z,2.73
2018-07-16T12:13:53.277Z,2.60
2018-07-16T12:16:21.341Z,2.50
2018-07-16T12:18:49.412Z,3.00
2018-07-16T12:21:17.516Z,2.57
2018-07-16T12:23:45.585Z,2.87
2018-07-16T12:26:13.636Z,2.77
2018-07-16T12:28:41.695Z,2.67
2018-07-16T12:31:09.759Z,2.60
2018-07-16T12:33:37.824Z,2.77
2018-07-16T12:36:05.897Z,3.03
2018-07-16T12:38:33.980Z,3.00
2018-07-16T12:41:01.897Z,3.10
2018-07-16T12:43:30.204Z,2.70
2018-07-16T12:45:58.258Z,3.00
2018-07-16T12:48:26.324Z,3.00
2018-07-16T12:50:54.388Z,3.47
2018-07-16T12:53:22.448Z,2.50
2018-07-16T12:55:50.504Z,3.33
2018-07-16T12:58:18.573Z,2.97
2018-07-16T13:00:46.624Z,3.37
2018-07-16T13:03:14.689Z,3.27
2018-07-16T13:05:42.744Z,2.87
2018-07-16T13:08:10.808Z,2.90
2018-07-16T13:10:38.881Z,2.90
2018-07-16T13:13:06.948Z,3.20
2018-07-16T13:15:35.009Z,3.03
2018-07-16T13:18:03.132Z,2.80
2018-07-16T13:20:31.200Z,2.90
2018-07-16T13:22:59.260Z,2.60
2018-07-16T13:25:27.325Z,3.43
2018-07-16T13:27:55.392Z,2.90
2018-07-16T13:30:23.465Z,3.33
2018-07-16T13:32:51.516Z,3.27
2018-07-16T13:35:19.574Z,3.40
2018-07-16T13:37:47.646Z,3.20
2018-07-16T13:40:15.704Z,3.00
2018-07-16T13:42:43.819Z,3.33
2018-07-16T13:45:11.888Z,3.20
2018-07-16T13:47:40.007Z,3.50
2018-07-16T13:50:08.117Z,3.17
2018-07-16T13:52:36.149Z,3.50
2018-07-16T13:55:04.212Z,2.83
2018-07-16T13:57:32.281Z,2.93
2018-07-16T14:00:00.331Z,3.03
2018-07-16T14:02:28.389Z,3.53
2018-07-16T14:04:56.452Z,3.17
2018-07-16T14:07:24.516Z,3.60
2018-07-16T14:09:52.584Z,3.73
2018-07-16T14:12:20.682Z,3.70
2018-07-16T14:14:48.732Z,3.27
2018-07-16T14:17:16.791Z,3.40
2018-07-16T14:19:44.841Z,3.33
2018-07-16T14:22:12.881Z,3.30
2018-07-16T14:24:40.932Z,3.10
2018-07-16T14:27:09.009Z,3.47
2018-07-16T14:29:37.107Z,3.00
2018-07-16T14:32:05.132Z,3.30
2018-07-16T14:34:33.301Z,3.30
2018-07-16T14:37:01.341Z,3.50
2018-07-16T14:39:29.517Z,3.03
2018-07-16T14:41:57.434Z,3.47
2018-07-16T14:44:25.496Z,3.27
2018-07-16T14:46:53.536Z,3.03
2018-07-16T14:49:21.593Z,3.10
2018-07-16T14:51:49.633Z,3.00
2018-07-16T14:54:17.675Z,3.37
2018-07-16T14:56:45.723Z,3.70
2018-07-16T14:59:13.789Z,3.40
2018-07-16T15:01:41.852Z,3.27
2018-07-16T15:04:09.893Z,3.30
2018-07-16T15:06:37.943Z,3.67
2018-07-16T15:09:07.658Z,3.40
2018-07-16T15:11:35.720Z,3.70
2018-07-16T15:14:03.895Z,3.70
2018-07-16T15:16:31.829Z,3.90
2018-07-16T15:18:59.881Z,3.53
2018-07-16T15:21:28.106Z,3.40
2018-07-16T15:23:56.014Z,3.47
2018-07-16T15:26:24.013Z,3.20
2018-07-16T15:28:52.064Z,3.77
2018-07-16T15:31:20.104Z,3.67
2018-07-16T15:33:48.152Z,3.77
2018-07-16T15:36:16.436Z,4.10
2018-07-16T15:38:44.486Z,3.67
2018-07-16T15:41:12.912Z,5.73
2018-07-16T15:43:40.986Z,4.50
2018-07-16T15:46:09.024Z,3.53
2018-07-16T15:48:37.092Z,3.10
2018-07-16T15:51:05.135Z,3.80
2018-07-16T15:53:33.196Z,4.20
2018-07-16T15:56:01.233Z,4.40
2018-07-16T15:58:29.508Z,3.80
2018-07-16T16:00:57.724Z,4.13
2018-07-16T16:03:25.760Z,3.60
2018-07-16T16:05:53.821Z,3.72
2018-07-16T16:08:21.868Z,4.40
2018-07-16T16:10:49.924Z,3.15
2018-07-16T16:13:17.969Z,3.05
2018-07-16T16:15:46.017Z,3.15
2018-07-16T16:18:14.100Z,3.75
2018-07-16T16:20:42.162Z,3.70
2018-07-16T16:23:10.222Z,3.40
2018-07-16T16:25:38.268Z,3.30
2018-07-16T16:28:06.315Z,3.80
2018-07-16T16:30:34.412Z,3.85
2018-07-16T16:33:02.498Z,3.53
2018-07-16T16:35:30.692Z,3.05
2018-07-16T16:37:59.160Z,3.50
2018-07-16T16:40:27.273Z,3.40
2018-07-16T16:42:55.330Z,3.22
2018-07-16T16:45:23.360Z,4.13
2018-07-16T16:47:51.399Z,3.60
2018-07-16T16:50:19.462Z,2.90
2018-07-16T16:52:47.616Z,3.70
2018-07-16T16:55:15.624Z,3.40
2018-07-16T16:57:43.673Z,3.60
2018-07-16T17:00:11.764Z,3.70
2018-07-16T17:02:39.765Z,3.90
2018-07-16T17:05:07.823Z,3.70
2018-07-16T17:07:35.967Z,3.75
2018-07-16T17:10:04.016Z,4.10
2018-07-16T17:12:32.060Z,3.95
2018-07-16T17:15:00.121Z,3.80
2018-07-16T17:17:28.212Z,3.35
2018-07-16T17:19:56.285Z,3.72
2018-07-16T17:22:24.352Z,3.50
2018-07-16T17:24:52.428Z,4.00
2018-07-16T17:27:20.512Z,4.65
2018-07-16T17:29:48.580Z,4.05
2018-07-16T17:32:16.635Z,4.17
2018-07-16T17:34:44.783Z,3.72
2018-07-16T17:37:12.780Z,4.30
2018-07-16T17:39:40.844Z,4.40
2018-07-16T17:42:08.904Z,4.22
2018-07-16T17:44:36.973Z,4.05
2018-07-16T17:47:05.223Z,3.85
2018-07-16T17:49:33.313Z,4.60
2018-07-16T17:52:01.366Z,5.25
2018-07-16T17:54:29.649Z,5.03
2018-07-16T17:56:57.767Z,4.72
2018-07-16T17:59:25.840Z,4.10
2018-07-16T18:01:54.032Z,4.50
2018-07-16T18:04:22.072Z,4.47
2018-07-16T18:06:50.140Z,4.75
2018-07-16T18:09:18.204Z,4.60
2018-07-16T18:11:46.288Z,4.80
2018-07-16T18:14:14.388Z,4.22
2018-07-16T18:16:42.445Z,4.75
2018-07-16T18:19:10.513Z,5.17
2018-07-16T18:21:38.589Z,4.40
2018-07-16T18:24:06.792Z,5.00
2018-07-16T18:26:34.879Z,6.08
2018-07-16T18:29:02.954Z,5.75
2018-07-16T18:31:31.013Z,6.08
2018-07-16T18:33:58.949Z,4.83
2018-07-16T18:36:27.015Z,4.75
2018-07-16T18:38:55.081Z,5.10
2018-07-16T18:41:23.148Z,4.83
2018-07-16T18:43:51.216Z,4.92
2018-07-16T18:46:19.516Z,4.40
2018-07-16T18:48:47.595Z,4.15
2018-07-16T18:51:15.665Z,5.03
2018-07-16T18:53:43.713Z,5.08
2018-07-16T18:56:11.789Z,5.55
2018-07-16T18:58:39.860Z,5.00
2018-07-16T19:01:07.939Z,4.90
2018-07-16T19:03:35.914Z,4.40
2018-07-16T19:06:03.934Z,4.65
2018-07-16T19:08:32.000Z,5.05
2018-07-16T19:11:00.061Z,4.47
2018-07-16T19:13:28.124Z,4.80
2018-07-16T19:15:56.180Z,4.45
2018-07-16T19:18:24.215Z,5.40
2018-07-16T19:20:52.260Z,5.03
2018-07-16T19:23:20.296Z,4.45
2018-07-16T19:25:48.357Z,5.08
2018-07-16T19:28:16.392Z,5.33
2018-07-16T19:30:44.443Z,5.60
2018-07-16T19:33:12.493Z,5.30
2018-07-16T19:35:40.602Z,5.15
2018-07-16T19:38:08.591Z,5.25
2018-07-16T19:40:36.641Z,4.60
2018-07-16T19:43:04.684Z,4.67
2018-07-16T19:45:32.740Z,4.42
2018-07-16T19:48:00.788Z,5.05
2018-07-16T19:50:28.837Z,4.70
2018-07-16T19:52:56.913Z,5.10
2018-07-16T19:55:24.948Z,4.62
2018-07-16T19:57:53.068Z,5.10
2018-07-16T20:00:21.431Z,5.17
2018-07-16T20:02:49.577Z,5.25
2018-07-16T20:05:17.533Z,4.67
2018-07-16T20:07:45.585Z,4.58
2018-07-16T20:10:13.629Z,5.70
2018-07-16T20:12:41.689Z,4.75
2018-07-16T20:15:10.093Z,5.37
2018-07-16T20:17:38.143Z,5.50
2018-07-16T20:20:08.061Z,5.28
2018-07-16T20:22:36.116Z,5.80
2018-07-16T20:25:04.977Z,5.08
2018-07-16T20:27:33.023Z,6.97
2018-07-16T20:30:01.062Z,4.97
2018-07-16T20:32:29.140Z,5.10
2018-07-16T20:34:57.148Z,4.40
2018-07-16T20:37:25.195Z,5.30
2018-07-16T20:39:53.299Z,4.83
2018-07-16T20:42:21.321Z,5.22
2018-07-16T20:44:49.368Z,4.95
2018-07-16T20:47:17.405Z,4.85
2018-07-16T20:49:45.452Z,5.37
2018-07-16T20:52:14.340Z,5.95
2018-07-16T20:54:42.381Z,5.85
2018-07-16T20:57:10.685Z,6.00
2018-07-16T20:59:38.742Z,5.45
2018-07-16T21:02:06.928Z,6.70
2018-07-16T21:04:34.977Z,5.28
2018-07-16T21:07:03.040Z,5.42
2018-07-16T21:09:31.077Z,5.17
2018-07-16T21:11:59.107Z,5.28
2018-07-16T21:14:27.156Z,5.00
2018-07-16T21:16:55.236Z,5.22
2018-07-16T21:19:23.301Z,4.87
2018-07-16T21:21:51.365Z,5.40
2018-07-16T21:24:19.526Z,4.75
2018-07-16T21:26:47.601Z,6.20
2018-07-16T21:29:15.669Z,5.47
2018-07-16T21:31:43.740Z,5.10
2018-07-16T21:34:11.809Z,5.70
2018-07-16T21:36:39.875Z,5.78
2018-07-16T21:39:07.981Z,5.50
2018-07-16T21:41:36.044Z,6.22
2018-07-16T21:44:04.124Z,5.95
2018-07-16T21:46:32.181Z,5.55
2018-07-16T21:49:00.260Z,5.00
2018-07-16T21:51:28.352Z,4.80
2018-07-16T21:53:56.420Z,6.45
2018-07-16T21:56:24.471Z,5.85
2018-07-16T21:58:52.537Z,5.70
2018-07-16T22:01:20.609Z,5.80
2018-07-16T22:03:48.690Z,5.65
2018-07-16T22:06:16.749Z,5.47
2018-07-16T22:08:44.823Z,5.90
2018-07-16T22:11:12.876Z,6.22
2018-07-16T22:13:40.944Z,5.83
2018-07-16T22:16:09.063Z,5.20
2018-07-16T22:18:37.112Z,5.22
2018-07-16T22:21:05.178Z,6.20
2018-07-16T22:23:33.248Z,6.10
2018-07-16T22:26:01.313Z,5.62
2018-07-16T22:28:29.364Z,5.70
2018-07-16T22:30:57.424Z,5.70
2018-07-16T22:33:25.528Z,5.35
2018-07-16T22:35:53.589Z,5.80
2018-07-16T22:38:21.704Z,5.92
2018-07-16T22:40:49.760Z,5.45
2018-07-16T22:43:17.837Z,5.87
2018-07-16T22:45:45.912Z,5.72
2018-07-16T22:48:13.973Z,5.50
2018-07-16T22:50:42.037Z,5.80
2018-07-16T22:53:10.110Z,5.60
2018-07-16T22:55:38.179Z,5.50
2018-07-16T22:58:06.257Z,6.00
2018-07-16T23:00:34.311Z,5.62
2018-07-16T23:03:02.392Z,5.60
2018-07-16T23:05:30.308Z,6.45
2018-07-16T23:07:58.377Z,6.30
2018-07-16T23:10:26.448Z,6.17
2018-07-16T23:12:54.508Z,6.47
2018-07-16T23:15:22.568Z,5.90
2018-07-16T23:17:50.641Z,5.65
2018-07-16T23:20:18.716Z,5.90
2018-07-16T23:22:56.233Z,5.67
2018-07-16T23:25:24.280Z,6.03
2018-07-16T23:27:52.366Z,5.33
2018-07-16T23:30:20.428Z,5.97
2018-07-16T23:32:48.495Z,5.55
2018-07-16T23:35:17.264Z,5.80
2018-07-16T23:37:45.448Z,6.28
2018-07-16T23:40:13.548Z,5.53
2018-07-16T23:42:41.604Z,6.37
2018-07-16T23:45:09.675Z,6.28
2018-07-16T23:47:37.744Z,6.03
2018-07-16T23:50:05.636Z,6.50
2018-07-16T23:52:33.692Z,5.95
2018-07-16T23:55:01.772Z,5.55
2018-07-16T23:57:30.067Z,6.00
2018-07-16T23:59:58.124Z,5.30
